createdAt,value
2019-03-03T00:00:05.069Z,10.28
2019-03-03T00:01:20.168Z,12.63
2019-03-03T00:02:33.629Z,12.15
2019-03-03T00:03:46.974Z,9.63
2019-03-03T00:05:00.307Z,14.18
2019-03-03T00:06:13.493Z,11.15
2019-03-03T00:07:26.713Z,10.15
2019-03-03T00:08:39.937Z,10.18
2019-03-03T00:09:53.177Z,11.90
2019-03-03T00:11:06.445Z,13.13
2019-03-03T00:12:19.665Z,12.43
2019-03-03T00:13:32.887Z,12.82
2019-03-03T00:14:46.105Z,11.30
2019-03-03T00:15:59.341Z,12.15
2019-03-03T00:17:12.566Z,10.50
2019-03-03T00:18:25.813Z,12.95
2019-03-03T00:19:39.015Z,13.13
2019-03-03T00:20:52.232Z,9.65
2019-03-03T00:22:05.468Z,14.03
2019-03-03T00:23:20.206Z,9.95
2019-03-03T00:24:33.436Z,12.93
2019-03-03T00:25:46.662Z,12.33
2019-03-03T00:26:59.885Z,11.40
2019-03-03T00:28:13.121Z,14.43
2019-03-03T00:29:26.353Z,8.88
2019-03-03T00:30:39.573Z,12.20
2019-03-03T00:31:52.848Z,12.63
2019-03-03T00:33:06.301Z,9.15
2019-03-03T00:34:19.544Z,10.78
2019-03-03T00:35:32.764Z,10.60
2019-03-03T00:36:59.759Z,9.68
2019-03-03T00:38:26.397Z,10.13
2019-03-03T00:39:41.282Z,10.82
2019-03-03T00:40:58.832Z,10.63
2019-03-03T00:42:16.082Z,13.32
2019-03-03T00:43:30.941Z,9.25
2019-03-03T00:44:54.465Z,11.88
2019-03-03T00:46:25.120Z,9.28
2019-03-03T00:47:43.383Z,8.90
2019-03-03T00:49:01.181Z,9.08
2019-03-03T00:50:16.065Z,11.53
2019-03-03T00:51:33.568Z,9.80
2019-03-03T00:52:49.793Z,11.08
2019-03-03T00:54:07.305Z,11.50
2019-03-03T00:55:28.146Z,10.15
2019-03-03T00:56:52.904Z,11.15
2019-03-03T00:58:07.764Z,11.85
2019-03-03T00:59:22.616Z,10.82
2019-03-03T01:00:52.326Z,13.03
2019-03-03T01:02:14.000Z,8.73
2019-03-03T01:03:37.591Z,13.55
2019-03-03T01:04:52.452Z,10.10
2019-03-03T01:06:08.361Z,9.43
2019-03-03T01:07:32.189Z,8.75
2019-03-03T01:08:55.788Z,10.53
2019-03-03T01:10:10.646Z,11.53
2019-03-03T01:11:28.465Z,9.55
2019-03-03T01:12:49.392Z,8.95
2019-03-03T01:14:07.262Z,11.10
2019-03-03T01:15:22.599Z,13.35
2019-03-03T01:16:37.718Z,9.18
2019-03-03T01:17:55.527Z,10.48
2019-03-03T01:19:13.338Z,12.18
2019-03-03T01:20:43.687Z,8.90
2019-03-03T01:22:01.513Z,10.43
2019-03-03T01:23:22.267Z,12.35
2019-03-03T01:24:43.001Z,9.33
2019-03-03T01:25:56.213Z,9.50
2019-03-03T01:27:09.454Z,11.68
2019-03-03T01:28:22.670Z,9.53
2019-03-03T01:29:35.890Z,9.08
2019-03-03T01:30:49.108Z,11.65
2019-03-03T01:32:02.347Z,9.93
2019-03-03T01:33:15.577Z,11.43
2019-03-03T01:34:28.805Z,9.55
2019-03-03T01:35:42.016Z,10.58
2019-03-03T01:36:55.255Z,10.43
2019-03-03T01:38:08.485Z,9.33
2019-03-03T01:39:21.696Z,9.33
2019-03-03T01:40:34.912Z,9.50
2019-03-03T01:41:48.142Z,10.60
2019-03-03T01:43:01.350Z,9.15
2019-03-03T01:44:14.586Z,8.83
2019-03-03T01:45:27.803Z,9.35
2019-03-03T01:46:41.021Z,6.75
2019-03-03T01:47:54.261Z,10.23
2019-03-03T01:49:07.472Z,8.38
2019-03-03T01:50:20.706Z,8.88
2019-03-03T01:51:33.926Z,7.78
2019-03-03T01:52:47.146Z,8.08
2019-03-03T01:54:00.605Z,10.23
2019-03-03T01:55:13.844Z,11.20
2019-03-03T01:56:27.058Z,8.83
2019-03-03T01:57:40.281Z,8.50
2019-03-03T01:58:53.515Z,9.23
2019-03-03T02:00:26.964Z,11.78
2019-03-03T02:01:40.180Z,8.53
2019-03-03T02:02:54.049Z,11.03
2019-03-03T02:04:07.262Z,13.05
2019-03-03T02:05:21.525Z,9.23
2019-03-03T02:06:34.754Z,9.03
2019-03-03T02:07:47.988Z,12.18
2019-03-03T02:09:01.197Z,8.38
2019-03-03T02:10:14.413Z,9.25
2019-03-03T02:11:27.638Z,8.63
2019-03-03T02:12:40.857Z,8.05
2019-03-03T02:13:54.076Z,7.75
2019-03-03T02:15:08.041Z,8.18
2019-03-03T02:16:21.278Z,12.43
2019-03-03T02:17:34.498Z,9.93
2019-03-03T02:18:47.713Z,8.38
2019-03-03T02:20:00.944Z,7.05
2019-03-03T02:21:14.170Z,8.03
2019-03-03T02:22:27.385Z,7.75
2019-03-03T02:23:40.613Z,10.30
2019-03-03T02:24:53.834Z,9.85
2019-03-03T02:26:07.057Z,6.78
2019-03-03T02:27:20.269Z,7.45
2019-03-03T02:28:33.492Z,9.60
2019-03-03T02:29:46.713Z,7.58
2019-03-03T02:30:59.934Z,8.00
2019-03-03T02:32:13.154Z,7.90
2019-03-03T02:33:26.382Z,7.28
2019-03-03T02:34:40.561Z,6.75
2019-03-03T02:35:55.306Z,10.10
2019-03-03T02:37:08.518Z,8.23
2019-03-03T02:38:21.817Z,10.10
2019-03-03T02:39:35.034Z,7.60
2019-03-03T02:40:48.260Z,7.85
2019-03-03T02:42:01.486Z,8.35
2019-03-03T02:43:16.119Z,7.20
2019-03-03T02:44:29.333Z,8.23
2019-03-03T02:45:42.570Z,8.53
2019-03-03T02:46:55.785Z,6.45
2019-03-03T02:48:08.996Z,6.72
2019-03-03T02:49:22.216Z,8.00
2019-03-03T02:50:35.440Z,6.50
2019-03-03T02:51:48.666Z,7.62
2019-03-03T02:53:03.379Z,8.65
2019-03-03T02:54:16.599Z,8.08
2019-03-03T02:55:29.834Z,7.25
2019-03-03T02:56:43.092Z,6.22
2019-03-03T02:57:56.358Z,6.47
2019-03-03T02:59:09.593Z,6.12
2019-03-03T03:00:24.602Z,6.87
2019-03-03T03:01:39.525Z,5.97
2019-03-03T03:02:54.606Z,7.35
2019-03-03T03:04:07.833Z,10.43
2019-03-03T03:05:27.553Z,6.12
2019-03-03T03:06:43.177Z,8.33
2019-03-03T03:07:58.084Z,8.13
2019-03-03T03:09:18.675Z,5.87
2019-03-03T03:10:49.478Z,5.73
2019-03-03T03:12:11.476Z,7.75
2019-03-03T03:13:26.320Z,6.35
2019-03-03T03:14:41.178Z,6.30
2019-03-03T03:16:01.854Z,9.85
2019-03-03T03:17:32.114Z,6.92
2019-03-03T03:18:52.782Z,8.10
2019-03-03T03:20:14.659Z,6.12
2019-03-03T03:21:29.509Z,6.42
2019-03-03T03:22:47.584Z,7.58
2019-03-03T03:24:17.526Z,5.85
2019-03-03T03:25:38.161Z,5.40
2019-03-03T03:26:53.037Z,6.70
2019-03-03T03:28:07.893Z,5.70
2019-03-03T03:29:22.746Z,6.22
2019-03-03T03:30:37.613Z,5.35
2019-03-03T03:31:58.417Z,7.42
2019-03-03T03:33:22.227Z,5.33
2019-03-03T03:34:38.118Z,7.00
2019-03-03T03:35:52.968Z,6.35
2019-03-03T03:37:07.906Z,5.15
2019-03-03T03:38:22.754Z,7.37
2019-03-03T03:39:40.894Z,6.40
2019-03-03T03:41:02.056Z,6.78
2019-03-03T03:42:16.928Z,7.15
2019-03-03T03:43:44.088Z,5.65
2019-03-03T03:45:01.341Z,6.45
2019-03-03T03:46:18.746Z,5.30
2019-03-03T03:47:33.613Z,5.53
2019-03-03T03:49:00.155Z,6.30
2019-03-03T03:50:26.840Z,7.03
2019-03-03T03:51:44.651Z,7.33
2019-03-03T03:53:11.237Z,8.40
2019-03-03T03:54:42.981Z,5.67
2019-03-03T03:57:23.925Z,5.55
2019-03-03T03:58:41.622Z,5.22
2019-03-03T03:59:56.480Z,5.28
2019-03-03T04:01:11.339Z,5.67
2019-03-03T04:02:26.213Z,5.60
2019-03-03T04:03:46.457Z,6.33
2019-03-03T04:05:19.373Z,5.62
2019-03-03T04:06:51.777Z,6.85
2019-03-03T04:08:06.651Z,6.17
2019-03-03T04:09:21.509Z,5.78
2019-03-03T04:10:48.225Z,7.60
2019-03-03T04:12:19.092Z,6.65
2019-03-03T04:13:33.966Z,4.85
2019-03-03T04:15:03.574Z,6.97
2019-03-03T04:16:21.299Z,5.30
2019-03-03T04:17:38.826Z,7.30
2019-03-03T04:18:59.510Z,6.78
2019-03-03T04:20:17.385Z,6.20
2019-03-03T04:21:47.037Z,7.25
2019-03-03T04:23:02.478Z,7.92
2019-03-03T04:24:26.191Z,5.10
2019-03-03T04:25:41.037Z,6.75
2019-03-03T04:26:55.894Z,6.80
2019-03-03T04:28:28.711Z,8.25
2019-03-03T04:29:46.213Z,7.35
2019-03-03T04:31:01.066Z,6.20
2019-03-03T04:32:24.698Z,6.22
2019-03-03T04:33:39.619Z,6.45
2019-03-03T04:35:10.819Z,7.47
2019-03-03T04:36:38.085Z,7.35
2019-03-03T04:37:52.959Z,8.08
2019-03-03T04:39:08.180Z,6.37
2019-03-03T04:40:25.580Z,8.30
2019-03-03T04:41:56.413Z,6.87
2019-03-03T04:43:14.286Z,6.33
2019-03-03T04:44:35.401Z,9.38
2019-03-03T04:45:50.260Z,7.05
2019-03-03T04:47:07.593Z,8.58
2019-03-03T04:48:34.245Z,7.85
2019-03-03T04:49:52.041Z,7.33
2019-03-03T04:51:19.002Z,10.28
2019-03-03T04:52:36.861Z,5.92
2019-03-03T04:53:54.454Z,7.25
2019-03-03T04:55:09.626Z,7.12
2019-03-03T04:56:27.136Z,8.98
2019-03-03T04:58:00.332Z,12.90
2019-03-03T04:59:15.193Z,18.35
2019-03-03T05:00:32.842Z,9.05
2019-03-03T05:01:52.305Z,14.68
2019-03-03T05:03:24.793Z,10.68
2019-03-03T05:04:39.718Z,7.08
2019-03-03T05:05:57.239Z,8.00
2019-03-03T05:07:21.066Z,5.40
2019-03-03T05:08:41.712Z,6.30
2019-03-03T05:09:59.381Z,7.15
2019-03-03T05:11:33.834Z,6.00
2019-03-03T05:12:51.643Z,6.00
2019-03-03T05:14:06.771Z,7.08
2019-03-03T05:15:24.268Z,6.78
2019-03-03T05:16:39.328Z,7.65
2019-03-03T05:18:00.520Z,6.42
2019-03-03T05:19:14.125Z,6.00
2019-03-03T05:20:28.994Z,7.00
2019-03-03T05:21:42.213Z,10.38
2019-03-03T05:22:55.442Z,6.75
2019-03-03T05:24:08.664Z,8.50
2019-03-03T05:25:23.040Z,6.70
2019-03-03T05:26:36.371Z,6.12
2019-03-03T05:27:49.594Z,5.33
2019-03-03T05:29:02.842Z,8.13
2019-03-03T05:30:16.056Z,5.97
2019-03-03T05:31:29.741Z,5.85
2019-03-03T05:32:42.952Z,6.15
2019-03-03T05:33:56.185Z,5.28
2019-03-03T05:35:10.045Z,4.83
2019-03-03T05:36:23.261Z,5.45
2019-03-03T05:37:36.478Z,9.95
2019-03-03T05:38:49.693Z,4.65
2019-03-03T05:40:03.465Z,6.55
2019-03-03T05:41:16.688Z,4.05
2019-03-03T05:42:31.536Z,6.22
2019-03-03T05:43:44.753Z,4.87
2019-03-03T05:44:57.980Z,6.45
2019-03-03T05:46:11.200Z,5.28
2019-03-03T05:47:24.412Z,5.83
2019-03-03T05:48:37.641Z,7.40
2019-03-03T05:49:50.858Z,5.12
2019-03-03T05:51:05.709Z,7.22
2019-03-03T05:52:20.253Z,6.08
2019-03-03T05:53:34.496Z,6.28
2019-03-03T05:54:47.727Z,5.35
2019-03-03T05:56:00.951Z,6.30
2019-03-03T05:57:14.178Z,4.70
2019-03-03T05:58:29.024Z,5.83
2019-03-03T05:59:42.262Z,6.05
2019-03-03T06:00:55.484Z,7.22
2019-03-03T06:02:08.721Z,4.17
2019-03-03T06:03:21.936Z,4.80
2019-03-03T06:04:35.171Z,5.40
2019-03-03T06:05:48.378Z,7.05
2019-03-03T06:07:01.584Z,5.03
2019-03-03T06:08:14.803Z,4.28
2019-03-03T06:09:28.028Z,5.03
2019-03-03T06:10:41.249Z,4.35
2019-03-03T06:11:54.460Z,5.25
2019-03-03T06:13:07.676Z,5.03
2019-03-03T06:14:20.910Z,5.25
2019-03-03T06:15:34.126Z,6.60
2019-03-03T06:16:47.338Z,6.10
2019-03-03T06:18:00.553Z,6.00
2019-03-03T06:19:15.397Z,4.80
2019-03-03T06:20:28.625Z,4.62
2019-03-03T06:21:43.150Z,5.67
2019-03-03T06:22:56.361Z,5.55
2019-03-03T06:24:09.583Z,4.17
2019-03-03T06:25:22.803Z,4.90
2019-03-03T06:26:36.012Z,6.12
2019-03-03T06:27:49.241Z,5.50
2019-03-03T06:29:04.089Z,5.03
2019-03-03T06:30:17.312Z,6.10
2019-03-03T06:31:32.166Z,8.73
2019-03-03T06:32:45.388Z,6.85
2019-03-03T06:33:58.618Z,6.33
2019-03-03T06:35:12.428Z,4.92
2019-03-03T06:36:25.641Z,3.87
2019-03-03T06:37:38.861Z,5.58
2019-03-03T06:38:52.082Z,6.62
2019-03-03T06:40:08.148Z,5.80
2019-03-03T06:41:21.610Z,4.67
2019-03-03T06:42:34.822Z,4.65
2019-03-03T06:43:48.036Z,4.72
2019-03-03T06:45:01.342Z,6.03
2019-03-03T06:46:14.545Z,5.35
2019-03-03T06:47:27.765Z,4.42
2019-03-03T06:48:40.990Z,4.80
2019-03-03T06:49:54.217Z,3.33
2019-03-03T06:51:07.433Z,5.45
2019-03-03T06:52:20.653Z,5.87
2019-03-03T06:53:33.873Z,6.53
2019-03-03T06:54:47.108Z,7.65
2019-03-03T06:56:00.571Z,5.62
2019-03-03T06:57:14.275Z,5.25
2019-03-03T06:58:27.488Z,7.10
2019-03-03T06:59:40.713Z,3.95
2019-03-03T07:00:53.940Z,3.80
2019-03-03T07:02:07.152Z,4.95
2019-03-03T07:03:20.374Z,6.95
2019-03-03T07:04:33.592Z,5.62
2019-03-03T07:05:46.827Z,5.47
2019-03-03T07:07:00.038Z,5.55
2019-03-03T07:08:13.257Z,5.25
2019-03-03T07:09:26.478Z,3.62
2019-03-03T07:10:39.705Z,4.53
2019-03-03T07:11:52.914Z,6.00
2019-03-03T07:13:06.138Z,4.75
2019-03-03T07:14:19.394Z,4.90
2019-03-03T07:15:32.641Z,6.60
2019-03-03T07:16:45.857Z,2.37
2019-03-03T07:17:59.079Z,5.65
2019-03-03T07:19:12.297Z,9.93
2019-03-03T07:20:25.520Z,4.15
2019-03-03T07:21:38.732Z,5.10
2019-03-03T07:22:51.957Z,5.62
2019-03-03T07:24:05.169Z,4.53
2019-03-03T07:25:18.392Z,3.42
2019-03-03T07:26:31.617Z,2.72
2019-03-03T07:27:44.869Z,4.25
2019-03-03T07:28:58.139Z,4.03
2019-03-03T07:30:13.915Z,2.92
2019-03-03T07:31:27.168Z,3.02
2019-03-03T07:32:42.041Z,4.08
2019-03-03T07:33:55.642Z,2.42
2019-03-03T07:35:09.953Z,3.55
2019-03-03T07:36:23.162Z,6.65
2019-03-03T07:37:36.377Z,6.00
2019-03-03T07:38:49.714Z,4.30
2019-03-03T07:40:04.541Z,3.30
2019-03-03T07:41:22.144Z,6.78
2019-03-03T07:42:35.332Z,4.10
2019-03-03T07:43:48.617Z,2.90
2019-03-03T07:45:01.838Z,2.70
2019-03-03T07:46:15.079Z,5.03
2019-03-03T07:47:28.287Z,4.08
2019-03-03T07:48:41.503Z,3.52
2019-03-03T07:49:54.722Z,4.45
2019-03-03T07:51:07.942Z,3.12
2019-03-03T07:52:21.158Z,4.58
2019-03-03T07:53:34.373Z,2.65
2019-03-03T07:54:47.589Z,6.12
2019-03-03T07:56:00.825Z,3.00
2019-03-03T07:57:15.983Z,2.70
2019-03-03T07:58:28.970Z,4.20
2019-03-03T07:59:42.189Z,2.80
2019-03-03T08:00:56.134Z,4.72
2019-03-03T08:02:09.348Z,4.12
2019-03-03T08:03:22.573Z,3.62
2019-03-03T08:04:37.434Z,7.15
2019-03-03T08:05:52.450Z,4.08
2019-03-03T08:07:08.112Z,6.92
2019-03-03T08:08:21.389Z,2.33
2019-03-03T08:09:34.621Z,3.60
2019-03-03T08:10:47.842Z,2.75
2019-03-03T08:12:01.053Z,3.10
2019-03-03T08:13:14.274Z,3.02
2019-03-03T08:14:27.959Z,4.70
2019-03-03T08:15:41.169Z,8.35
2019-03-03T08:16:54.878Z,5.00
2019-03-03T08:18:08.098Z,3.25
2019-03-03T08:19:22.025Z,2.87
2019-03-03T08:20:35.252Z,4.58
2019-03-03T08:21:48.481Z,5.97
2019-03-03T08:23:02.157Z,3.22
2019-03-03T08:24:15.375Z,2.47
2019-03-03T08:25:28.600Z,3.60
2019-03-03T08:26:41.825Z,4.75
2019-03-03T08:27:55.049Z,3.77
2019-03-03T08:29:08.270Z,7.70
2019-03-03T08:30:21.537Z,8.43
2019-03-03T08:31:34.773Z,3.72
2019-03-03T08:32:47.990Z,5.28
2019-03-03T08:34:02.856Z,3.95
2019-03-03T08:35:21.645Z,6.75
2019-03-03T08:36:35.050Z,3.95
2019-03-03T08:37:48.272Z,4.75
2019-03-03T08:39:01.492Z,6.12
2019-03-03T08:40:15.769Z,6.83
2019-03-03T08:41:29.006Z,6.15
2019-03-03T08:42:44.941Z,5.78
2019-03-03T08:44:07.026Z,4.92
2019-03-03T08:45:37.946Z,4.17
2019-03-03T08:46:58.864Z,6.58
2019-03-03T08:48:22.576Z,2.95
2019-03-03T08:49:40.137Z,4.30
2019-03-03T08:50:57.922Z,2.83
2019-03-03T08:52:12.802Z,8.90
2019-03-03T08:53:27.676Z,6.22
2019-03-03T08:54:51.341Z,6.08
2019-03-03T08:56:08.627Z,2.33
2019-03-03T08:57:23.511Z,4.90
2019-03-03T08:58:47.361Z,6.92
2019-03-03T09:00:11.166Z,6.70
2019-03-03T09:01:26.041Z,3.45
2019-03-03T09:02:59.066Z,5.80
2019-03-03T09:04:19.574Z,4.22
2019-03-03T09:05:34.440Z,4.75
2019-03-03T09:06:51.717Z,4.47
2019-03-03T09:08:24.426Z,6.22
2019-03-03T09:09:56.197Z,6.42
2019-03-03T09:12:35.053Z,5.03
2019-03-03T09:13:55.703Z,6.37
2019-03-03T09:15:11.890Z,4.45
2019-03-03T09:16:32.697Z,5.80
2019-03-03T09:17:59.378Z,4.65
2019-03-03T09:19:22.967Z,6.70
2019-03-03T09:20:41.934Z,4.40
2019-03-03T09:22:13.089Z,5.10
2019-03-03T09:23:27.965Z,7.17
2019-03-03T09:24:42.833Z,4.35
2019-03-03T09:25:57.707Z,5.60
2019-03-03T09:27:28.868Z,3.25
2019-03-03T09:28:48.205Z,8.18
2019-03-03T09:30:05.729Z,8.38
2019-03-03T09:31:36.861Z,6.70
2019-03-03T09:33:00.729Z,4.28
2019-03-03T09:34:27.710Z,7.08
2019-03-03T09:35:45.229Z,7.28
2019-03-03T09:37:16.627Z,5.95
2019-03-03T09:38:43.251Z,5.75
2019-03-03T09:40:13.162Z,5.40
2019-03-03T09:41:28.043Z,4.92
2019-03-03T09:42:45.861Z,7.22
2019-03-03T09:44:17.036Z,4.28
2019-03-03T09:45:46.978Z,4.08
2019-03-03T09:47:01.866Z,4.33
2019-03-03T09:48:32.814Z,6.08
2019-03-03T09:49:47.692Z,3.58
2019-03-03T09:51:02.578Z,3.58
2019-03-03T09:52:23.449Z,2.15
2019-03-03T09:53:41.251Z,3.45
2019-03-03T09:55:02.513Z,4.67
2019-03-03T09:56:20.039Z,2.83
2019-03-03T09:57:37.865Z,3.42
2019-03-03T09:59:05.100Z,2.27
2019-03-03T10:00:39.697Z,6.25
2019-03-03T10:02:09.448Z,3.52
2019-03-03T10:03:42.137Z,4.80
2019-03-03T10:04:57.027Z,4.80
2019-03-03T10:06:17.688Z,3.00
2019-03-03T10:07:44.669Z,2.22
2019-03-03T10:09:02.774Z,4.92
2019-03-03T10:10:17.654Z,1.40
2019-03-03T10:11:35.335Z,2.62
2019-03-03T10:13:06.373Z,3.70
2019-03-03T10:14:24.214Z,2.83
2019-03-03T10:15:44.886Z,3.70
2019-03-03T10:17:16.118Z,3.15
2019-03-03T10:18:31.007Z,6.22
2019-03-03T10:19:45.874Z,3.77
2019-03-03T10:21:12.844Z,2.42
2019-03-03T10:22:45.440Z,3.17
2019-03-03T10:24:00.321Z,2.83
2019-03-03T10:25:21.194Z,2.60
2019-03-03T10:26:41.903Z,5.42
2019-03-03T10:28:01.106Z,3.00
2019-03-03T10:29:21.729Z,3.00
2019-03-03T10:30:52.783Z,1.37
2019-03-03T10:32:07.669Z,3.87
2019-03-03T10:33:34.421Z,7.03
2019-03-03T10:34:49.301Z,2.50
2019-03-03T10:36:18.996Z,5.40
2019-03-03T10:37:42.750Z,3.70
2019-03-03T10:38:57.617Z,1.60
2019-03-03T10:40:28.441Z,1.85
2019-03-03T10:41:49.373Z,2.12
2019-03-03T10:43:07.289Z,3.80
2019-03-03T10:44:23.271Z,2.45
2019-03-03T10:45:44.469Z,2.80
2019-03-03T10:47:15.278Z,1.80
2019-03-03T10:48:30.150Z,2.15
2019-03-03T10:49:56.911Z,4.47
2019-03-03T10:51:27.581Z,4.03
2019-03-03T10:52:42.475Z,5.28
2019-03-03T10:54:06.517Z,2.08
2019-03-03T10:55:30.134Z,3.58
2019-03-03T10:56:44.994Z,3.40
2019-03-03T10:58:02.538Z,3.42
2019-03-03T10:59:25.817Z,2.75
2019-03-03T11:00:46.597Z,4.30
2019-03-03T11:02:19.429Z,3.35
2019-03-03T11:03:40.297Z,2.65
2019-03-03T11:05:01.134Z,2.17
2019-03-03T11:06:21.901Z,3.80
2019-03-03T11:07:44.054Z,2.42
2019-03-03T11:09:04.617Z,3.22
2019-03-03T11:10:35.514Z,6.12
2019-03-03T11:11:57.321Z,4.80
2019-03-03T11:13:12.181Z,2.70
2019-03-03T11:14:38.852Z,2.90
2019-03-03T11:15:53.725Z,2.75
2019-03-03T11:17:14.409Z,1.85
2019-03-03T11:18:55.822Z,7.08
2019-03-03T11:20:12.481Z,4.42
2019-03-03T11:21:39.423Z,2.40
2019-03-03T11:23:09.205Z,5.62
2019-03-03T11:24:33.002Z,1.75
2019-03-03T11:26:04.218Z,3.70
2019-03-03T11:27:37.283Z,4.55
2019-03-03T11:29:11.108Z,5.12
2019-03-03T11:30:25.978Z,2.35
2019-03-03T11:31:40.856Z,3.83
2019-03-03T11:32:56.378Z,5.87
2019-03-03T11:34:27.037Z,2.12
2019-03-03T11:35:44.621Z,3.80
2019-03-03T11:36:59.497Z,3.75
2019-03-03T11:38:29.258Z,2.08
2019-03-03T11:39:56.135Z,5.80
2019-03-03T11:41:10.991Z,5.22
2019-03-03T11:42:25.865Z,2.55
2019-03-03T11:43:49.617Z,5.22
2019-03-03T11:45:19.321Z,5.17
2019-03-03T11:46:34.189Z,4.17
2019-03-03T11:47:51.950Z,6.05
2019-03-03T11:49:06.834Z,4.25
2019-03-03T11:50:24.413Z,2.15
2019-03-03T11:51:42.258Z,4.70
2019-03-03T11:53:03.086Z,5.78
2019-03-03T11:54:20.873Z,3.45
2019-03-03T11:55:53.797Z,2.45
2019-03-03T11:57:08.662Z,3.30
2019-03-03T11:58:29.456Z,2.95
2019-03-03T12:00:02.210Z,2.25
2019-03-03T12:01:17.081Z,4.20
2019-03-03T12:02:40.956Z,6.25
2019-03-03T12:03:55.888Z,4.28
2019-03-03T12:05:15.537Z,1.42
2019-03-03T12:06:46.878Z,3.55
2019-03-03T12:08:04.705Z,3.70
2019-03-03T12:09:25.290Z,2.12
2019-03-03T12:10:40.158Z,2.17
2019-03-03T12:11:55.034Z,2.22
2019-03-03T12:13:15.672Z,3.77
2019-03-03T12:14:30.545Z,4.27
2019-03-03T12:16:03.256Z,2.90
2019-03-03T12:17:30.297Z,1.90
2019-03-03T12:18:51.123Z,3.45
2019-03-03T12:20:14.057Z,2.50
2019-03-03T12:21:45.307Z,3.25
2019-03-03T12:23:17.143Z,1.75
2019-03-03T12:24:34.557Z,2.77
2019-03-03T12:26:05.190Z,2.35
2019-03-03T12:27:23.022Z,2.30
2019-03-03T12:28:52.417Z,1.67
2019-03-03T12:30:10.202Z,2.77
2019-03-03T12:31:25.085Z,2.17
2019-03-03T12:32:56.073Z,1.85
2019-03-03T12:34:17.016Z,3.67
2019-03-03T12:35:43.693Z,4.30
2019-03-03T12:37:23.692Z,2.45
2019-03-03T12:38:47.717Z,1.70
2019-03-03T12:40:08.317Z,1.42
2019-03-03T12:41:28.913Z,2.77
2019-03-03T12:42:52.587Z,1.75
2019-03-03T12:44:08.348Z,3.40
2019-03-03T12:45:38.304Z,2.02
2019-03-03T12:46:57.339Z,2.08
2019-03-03T12:48:12.204Z,3.98
2019-03-03T12:49:29.766Z,1.95
2019-03-03T12:50:53.550Z,3.22
2019-03-03T12:52:08.418Z,2.62
2019-03-03T12:53:25.933Z,1.95
2019-03-03T12:54:52.894Z,2.00
2019-03-03T12:56:10.661Z,1.90
2019-03-03T12:57:31.267Z,3.55
2019-03-03T12:58:46.125Z,4.33
2019-03-03T13:00:07.325Z,5.50
2019-03-03T13:01:23.749Z,15.18
2019-03-03T13:02:54.861Z,6.22
2019-03-03T13:04:15.782Z,3.60
2019-03-03T13:05:39.655Z,3.17
2019-03-03T13:07:10.421Z,4.72
2019-03-03T13:08:33.982Z,3.17
2019-03-03T13:09:54.847Z,2.52
2019-03-03T13:11:09.733Z,1.50
2019-03-03T13:12:30.322Z,2.50
2019-03-03T13:13:48.430Z,3.12
2019-03-03T13:15:03.310Z,2.65
2019-03-03T13:16:24.114Z,4.08
2019-03-03T13:17:48.306Z,2.80
2019-03-03T13:19:17.729Z,3.35
2019-03-03T13:20:32.616Z,3.03
2019-03-03T13:21:50.443Z,4.62
2019-03-03T13:23:05.967Z,2.42
2019-03-03T13:24:23.737Z,3.50
2019-03-03T13:25:38.624Z,5.65
2019-03-03T13:26:56.478Z,5.15
2019-03-03T13:28:21.253Z,3.42
2019-03-03T13:29:41.741Z,2.70
2019-03-03T13:31:02.412Z,1.90
2019-03-03T13:32:23.338Z,1.53
2019-03-03T13:33:41.144Z,2.62
2019-03-03T13:35:11.582Z,3.08
2019-03-03T13:36:35.305Z,3.27
2019-03-03T13:37:58.905Z,3.37
2019-03-03T13:39:30.445Z,2.72
2019-03-03T13:41:01.093Z,2.37
2019-03-03T13:42:19.702Z,2.77
2019-03-03T13:43:34.405Z,3.55
2019-03-03T13:44:47.729Z,3.72
2019-03-03T13:46:00.962Z,2.42
2019-03-03T13:47:14.197Z,4.42
2019-03-03T13:48:27.458Z,3.47
2019-03-03T13:49:41.642Z,2.05
2019-03-03T13:50:56.108Z,2.58
2019-03-03T13:52:09.420Z,3.72
2019-03-03T13:53:22.641Z,3.75
2019-03-03T13:54:35.862Z,2.62
2019-03-03T13:55:49.169Z,3.55
2019-03-03T13:57:02.396Z,4.25
2019-03-03T13:58:15.648Z,1.70
2019-03-03T13:59:28.885Z,3.05
2019-03-03T14:00:42.134Z,1.60
2019-03-03T14:01:55.673Z,2.45
2019-03-03T14:03:08.904Z,3.70
2019-03-03T14:04:22.722Z,3.22
2019-03-03T14:05:35.979Z,2.33
2019-03-03T14:06:50.391Z,3.40
2019-03-03T14:08:03.625Z,4.47
2019-03-03T14:09:16.852Z,2.12
2019-03-03T14:10:30.092Z,2.05
2019-03-03T14:11:43.321Z,3.52
2019-03-03T14:12:56.556Z,4.03
2019-03-03T14:14:09.873Z,5.33
2019-03-03T14:15:23.104Z,2.00
2019-03-03T14:16:36.358Z,2.90
2019-03-03T14:17:49.596Z,2.00
2019-03-03T14:19:02.829Z,5.12
2019-03-03T14:20:18.299Z,3.60
2019-03-03T14:21:32.825Z,3.02
2019-03-03T14:22:46.392Z,2.60
2019-03-03T14:23:59.615Z,3.75
2019-03-03T14:25:14.229Z,2.67
2019-03-03T14:26:27.457Z,2.42
2019-03-03T14:27:40.897Z,2.92
2019-03-03T14:28:55.339Z,4.40
2019-03-03T14:30:20.703Z,2.58
2019-03-03T14:31:33.937Z,2.17
2019-03-03T14:32:47.173Z,2.50
2019-03-03T14:34:00.573Z,2.20
2019-03-03T14:35:16.592Z,2.55
2019-03-03T14:36:29.826Z,2.75
2019-03-03T14:37:43.341Z,2.90
2019-03-03T14:38:56.560Z,3.40
2019-03-03T14:40:15.768Z,1.85
2019-03-03T14:41:30.834Z,2.17
2019-03-03T14:42:45.325Z,4.97
2019-03-03T14:43:59.018Z,3.00
2019-03-03T14:45:14.849Z,2.98
2019-03-03T14:46:28.092Z,3.58
2019-03-03T14:47:41.320Z,1.87
2019-03-03T14:48:56.077Z,2.25
2019-03-03T14:50:11.437Z,3.00
2019-03-03T14:51:24.795Z,5.08
2019-03-03T14:52:38.046Z,1.37
2019-03-03T14:53:52.176Z,2.25
2019-03-03T14:55:08.705Z,2.10
2019-03-03T14:56:22.261Z,4.72
2019-03-03T14:57:35.497Z,5.80
2019-03-03T14:58:49.739Z,1.92
2019-03-03T15:00:03.145Z,3.25
2019-03-03T15:01:17.341Z,2.37
2019-03-03T15:02:30.577Z,3.30
2019-03-03T15:03:44.046Z,3.75
2019-03-03T15:04:58.481Z,4.60
2019-03-03T15:06:12.110Z,2.02
2019-03-03T15:07:26.625Z,0.82
2019-03-03T15:08:40.054Z,2.72
2019-03-03T15:09:53.283Z,1.82
2019-03-03T15:11:06.514Z,4.12
2019-03-03T15:12:19.746Z,3.58
2019-03-03T15:13:32.989Z,1.98
2019-03-03T15:14:47.124Z,2.60
2019-03-03T15:16:01.068Z,1.07
2019-03-03T15:17:15.656Z,2.75
2019-03-03T15:18:29.083Z,2.02
2019-03-03T15:19:42.561Z,1.57
2019-03-03T15:20:55.813Z,6.80
2019-03-03T15:22:10.713Z,2.58
2019-03-03T15:23:25.862Z,2.70
2019-03-03T15:24:39.102Z,2.10
2019-03-03T15:25:52.341Z,2.22
2019-03-03T15:27:05.581Z,1.98
2019-03-03T15:28:20.428Z,3.95
2019-03-03T15:29:33.668Z,2.72
2019-03-03T15:30:47.621Z,5.35
2019-03-03T15:32:00.864Z,3.70
2019-03-03T15:33:14.086Z,2.98
2019-03-03T15:34:28.581Z,1.55
2019-03-03T15:35:46.605Z,1.72
2019-03-03T15:36:59.843Z,2.20
2019-03-03T15:38:13.754Z,2.22
2019-03-03T15:39:29.329Z,2.30
2019-03-03T15:40:42.620Z,4.92
2019-03-03T15:41:55.861Z,1.55
2019-03-03T15:43:09.113Z,3.55
2019-03-03T15:44:22.386Z,2.40
2019-03-03T15:45:35.610Z,4.33
2019-03-03T15:46:48.830Z,3.15
2019-03-03T15:48:02.075Z,1.62
2019-03-03T15:49:15.761Z,3.37
2019-03-03T15:50:28.996Z,2.22
2019-03-03T15:51:42.227Z,2.12
2019-03-03T15:52:55.458Z,3.10
2019-03-03T15:54:08.695Z,2.00
2019-03-03T15:55:23.832Z,2.47
2019-03-03T15:56:37.066Z,1.80
2019-03-03T15:57:50.301Z,2.35
2019-03-03T15:59:03.524Z,2.98
2019-03-03T16:00:21.696Z,3.45
2019-03-03T16:01:34.921Z,3.02
2019-03-03T16:02:48.146Z,1.92
2019-03-03T16:04:01.385Z,2.87
2019-03-03T16:05:14.950Z,2.35
2019-03-03T16:06:44.397Z,1.22
2019-03-03T16:09:25.355Z,5.17
2019-03-03T16:10:44.578Z,1.22
2019-03-03T16:11:58.319Z,3.20
2019-03-03T16:13:11.589Z,1.20
2019-03-03T16:14:24.886Z,2.27
2019-03-03T16:15:42.876Z,0.98
2019-03-03T16:17:00.456Z,2.15
2019-03-03T16:18:29.970Z,1.77
2019-03-03T16:19:43.835Z,2.75
2019-03-03T16:21:19.614Z,1.80
2019-03-03T16:22:36.590Z,2.75
2019-03-03T16:23:51.449Z,2.05
2019-03-03T16:25:09.112Z,2.85
2019-03-03T16:26:23.578Z,2.60
2019-03-03T16:27:37.111Z,1.17
2019-03-03T16:28:52.026Z,3.33
2019-03-03T16:30:10.797Z,1.60
2019-03-03T16:31:25.305Z,1.82
2019-03-03T16:32:38.562Z,1.42
2019-03-03T16:33:51.801Z,2.00
2019-03-03T16:35:05.870Z,2.98
2019-03-03T16:36:19.120Z,1.02
2019-03-03T16:37:32.349Z,1.42
2019-03-03T16:38:45.585Z,2.62
2019-03-03T16:39:58.819Z,0.95
2019-03-03T16:41:12.051Z,2.35
2019-03-03T16:42:25.276Z,2.22
2019-03-03T16:43:38.513Z,1.67
2019-03-03T16:44:51.769Z,1.85
2019-03-03T16:46:05.005Z,0.82
2019-03-03T16:47:23.612Z,1.75
2019-03-03T16:48:36.853Z,3.40
2019-03-03T16:49:50.095Z,3.70
2019-03-03T16:51:03.397Z,1.72
2019-03-03T16:52:17.015Z,1.57
2019-03-03T16:53:31.601Z,1.95
2019-03-03T16:54:45.699Z,3.65
2019-03-03T16:56:01.259Z,3.27
2019-03-03T16:57:17.343Z,2.12
2019-03-03T16:58:31.023Z,3.30
2019-03-03T16:59:46.998Z,3.80
2019-03-03T17:01:02.347Z,4.05
2019-03-03T17:02:15.634Z,2.05
2019-03-03T17:03:28.877Z,1.37
2019-03-03T17:04:42.417Z,3.45
2019-03-03T17:05:56.159Z,2.12
2019-03-03T17:07:09.405Z,2.75
2019-03-03T17:08:24.775Z,3.62